createdAt,value
2018-11-22T00:02:06.539Z,59.87
2018-11-22T00:04:36.862Z,60.53
2018-11-22T00:07:07.186Z,61.08
2018-11-22T00:09:37.504Z,59.73
2018-11-22T00:12:08.083Z,61.40
2018-11-22T00:14:38.482Z,64.00
2018-11-22T00:17:08.898Z,58.53
2018-11-22T00:19:39.479Z,59.90
2018-11-22T00:22:10.162Z,61.55
2018-11-22T00:24:40.413Z,61.63
2018-11-22T00:27:10.982Z,57.85
2018-11-22T00:29:41.190Z,61.70
2018-11-22T00:32:11.506Z,62.63
2018-11-22T00:34:42.985Z,63.30
2018-11-22T00:37:13.418Z,62.17
2018-11-22T12:16:20.440Z,54.08
2018-11-22T12:18:50.982Z,57.83
2018-11-22T12:21:21.168Z,61.83
2018-11-22T12:23:52.133Z,61.17
2018-11-22T12:26:22.414Z,57.53
2018-11-22T12:28:52.782Z,65.50
2018-11-22T12:31:23.547Z,61.77
2018-11-22T12:33:59.531Z,58.17
2018-11-22T12:36:34.923Z,58.40
2018-11-22T12:39:08.510Z,64.47
2018-11-22T12:41:39.693Z,55.73
2018-11-22T12:44:09.949Z,58.10
2018-11-22T12:46:40.691Z,58.85
2018-11-22T12:49:11.240Z,54.88
2018-11-22T12:51:41.475Z,54.87
2018-11-22T12:54:11.964Z,61.43
2018-11-22T12:56:42.305Z,56.30
2018-11-22T12:59:12.644Z,57.27
2018-11-22T13:01:42.997Z,58.75
2018-11-22T13:04:13.241Z,69.05
2018-11-22T13:06:44.454Z,61.23
2018-11-22T13:11:51.135Z,69.50
2018-11-22T13:14:22.012Z,60.03
2018-11-22T13:16:53.211Z,69.50
2018-11-22T13:19:23.515Z,67.80
2018-11-22T13:21:54.796Z,61.10
2018-11-22T13:24:25.218Z,61.60
2018-11-22T13:26:56.384Z,65.63
2018-11-22T13:29:26.595Z,70.67
2018-11-22T13:31:57.080Z,62.27
2018-11-22T13:34:27.523Z,63.23
2018-11-22T13:36:57.704Z,67.00
2018-11-22T13:39:28.321Z,65.07
2018-11-22T13:41:58.813Z,62.63
2018-11-22T13:44:30.088Z,63.73
2018-11-22T13:47:00.401Z,67.87
2018-11-22T13:49:30.893Z,67.20
2018-11-22T13:52:01.379Z,68.83
2018-11-22T13:54:32.517Z,70.63
2018-11-22T13:57:03.219Z,69.60
2018-11-22T13:59:33.413Z,66.97
2018-11-22T14:02:03.815Z,71.97
2018-11-22T14:04:34.574Z,73.83
2018-11-22T14:07:05.615Z,71.80
2018-11-22T14:09:35.743Z,70.57
2018-11-22T14:12:06.129Z,69.23
2018-11-22T14:14:37.125Z,75.73
2018-11-22T14:17:07.535Z,70.70
2018-11-22T14:19:38.365Z,71.93
2018-11-22T14:22:08.608Z,71.97
2018-11-22T14:24:39.351Z,78.37
2018-11-22T14:27:10.477Z,63.77
2018-11-22T14:29:40.645Z,63.43
2018-11-22T14:32:11.153Z,63.42
2018-11-22T14:34:41.538Z,62.90
2018-11-22T14:37:11.949Z,69.20
2018-11-22T14:39:43.064Z,59.08
2018-11-22T14:42:13.459Z,68.13
2018-11-22T14:44:43.976Z,64.30
2018-11-22T14:47:14.453Z,72.47
2018-11-22T14:49:44.902Z,69.10
2018-11-22T14:52:15.578Z,69.83
2018-11-22T14:54:45.994Z,66.57
2018-11-22T14:57:16.291Z,68.27
2018-11-22T14:59:47.474Z,71.77
2018-11-22T15:02:17.855Z,74.57
2018-11-22T15:04:48.409Z,73.37
2018-11-22T15:07:19.328Z,77.47
2018-11-22T15:09:49.742Z,76.33
2018-11-22T15:12:19.968Z,77.27
2018-11-22T15:14:51.079Z,75.83
2018-11-22T15:17:21.731Z,77.17
2018-11-22T15:19:51.998Z,78.90
2018-11-22T15:22:22.243Z,83.60
2018-11-22T15:24:52.497Z,77.43
2018-11-22T15:27:22.955Z,79.42
2018-11-22T15:29:53.826Z,80.70
2018-11-22T15:32:24.079Z,78.28
2018-11-22T15:34:54.249Z,75.30
2018-11-22T15:37:24.526Z,76.90
2018-11-22T15:39:54.961Z,81.40
2018-11-22T15:42:25.186Z,80.97
2018-11-22T15:44:55.485Z,78.37
2018-11-22T15:47:25.707Z,78.63
2018-11-22T15:49:56.061Z,80.23
2018-11-22T15:52:26.872Z,76.87
2018-11-22T15:54:57.464Z,77.57
2018-11-22T15:57:27.739Z,80.87
2018-11-22T15:59:58.078Z,79.33
2018-11-22T16:02:28.310Z,76.60
2018-11-22T16:04:59.093Z,79.67
2018-11-22T16:07:29.930Z,78.07
2018-11-22T16:10:00.473Z,79.83
2018-11-22T16:12:31.531Z,81.17
2018-11-22T16:15:02.439Z,84.40
2018-11-22T16:17:33.146Z,80.57
2018-11-22T16:20:03.432Z,78.83
2018-11-22T16:22:33.984Z,82.97
2018-11-22T16:25:05.090Z,77.67
2018-11-22T16:27:35.865Z,78.70
2018-11-22T16:30:11.099Z,83.33
2018-11-22T16:32:42.007Z,79.13
2018-11-22T16:35:13.929Z,79.10
2018-11-22T16:37:44.693Z,79.30
2018-11-22T16:40:17.511Z,76.10
2018-11-22T16:42:48.899Z,82.53
2018-11-22T16:45:21.572Z,77.70
2018-11-22T16:47:51.963Z,80.17
2018-11-22T16:50:24.599Z,82.20
2018-11-22T16:52:55.727Z,82.70
2018-11-22T16:55:26.751Z,80.87
2018-11-22T16:57:58.338Z,82.10
2018-11-22T17:00:36.013Z,79.07
2018-11-22T17:03:09.299Z,79.27
2018-11-22T17:05:39.903Z,79.90
2018-11-22T17:08:10.831Z,78.30
2018-11-22T17:10:41.594Z,83.90
2018-11-22T17:13:11.876Z,78.70
2018-11-22T17:15:43.004Z,82.47
2018-11-22T17:18:13.437Z,75.78
2018-11-22T17:20:44.527Z,78.77
2018-11-22T17:23:15.560Z,80.97
2018-11-22T17:25:46.052Z,85.73
2018-11-22T17:28:17.109Z,79.07
2018-11-22T17:30:47.315Z,77.27
2018-11-22T17:33:18.252Z,75.13
2018-11-22T17:35:51.627Z,80.40
2018-11-22T17:38:22.039Z,76.37
2018-11-22T17:43:33.239Z,75.80
2018-11-22T17:46:04.290Z,77.60
2018-11-22T17:48:35.219Z,86.83
2018-11-22T17:51:06.311Z,79.33
2018-11-22T17:53:37.320Z,76.50
2018-11-22T17:56:08.323Z,76.73
2018-11-22T17:58:38.652Z,79.90
2018-11-22T18:01:14.505Z,77.07
2018-11-22T18:03:39.327Z,81.83
2018-11-22T18:06:10.218Z,73.40
2018-11-22T18:08:45.053Z,78.73
2018-11-22T18:11:15.967Z,83.03
2018-11-22T18:13:46.836Z,78.70
2018-11-22T18:16:17.293Z,78.15
2018-11-22T18:18:47.833Z,77.47
2018-11-22T18:21:18.046Z,77.53
2018-11-22T18:23:48.709Z,72.87
2018-11-22T18:26:20.081Z,74.12
2018-11-22T18:31:26.291Z,74.20
2018-11-22T18:33:57.057Z,79.23
2018-11-22T18:36:27.785Z,79.93
2018-11-22T18:41:34.241Z,75.10
2018-11-22T18:44:05.331Z,78.37
2018-11-22T18:46:35.894Z,76.77
2018-11-22T18:49:06.485Z,80.47
2018-11-22T18:51:36.747Z,73.33
2018-11-22T18:54:07.016Z,78.73
2018-11-22T18:56:37.389Z,76.23
2018-11-22T18:59:07.625Z,75.23
2018-11-22T19:01:44.899Z,80.03
2018-11-22T19:04:11.363Z,77.90
2018-11-22T19:06:42.356Z,81.00
2018-11-22T19:09:12.534Z,88.83
2018-11-22T19:11:42.742Z,76.40
2018-11-22T19:14:13.410Z,83.50
2018-11-22T19:16:48.230Z,79.90
2018-11-22T19:19:18.442Z,84.67
2018-11-22T19:21:48.836Z,83.57
2018-11-22T19:24:19.067Z,82.07
2018-11-22T19:26:49.653Z,88.63
2018-11-22T19:29:19.905Z,84.47
2018-11-22T19:31:50.202Z,88.97
2018-11-22T19:34:20.802Z,90.67
2018-11-22T19:36:51.192Z,85.63
2018-11-22T19:39:23.390Z,94.50
2018-11-22T19:41:54.131Z,81.17
2018-11-22T19:44:24.545Z,82.50
2018-11-22T19:46:54.948Z,83.60
2018-11-22T19:49:25.706Z,81.57
2018-11-22T19:51:56.082Z,80.97
2018-11-22T19:54:26.512Z,81.40
2018-11-22T19:56:56.919Z,87.73
2018-11-22T19:59:27.345Z,84.93
2018-11-22T20:01:57.877Z,81.77
2018-11-22T20:04:28.271Z,83.73
2018-11-22T20:06:58.697Z,81.77
2018-11-22T20:09:29.158Z,86.35
2018-11-22T20:11:59.569Z,82.33
2018-11-22T20:14:29.736Z,80.97
2018-11-22T20:17:00.074Z,84.53
2018-11-22T20:19:30.337Z,88.17
2018-11-22T20:22:01.523Z,81.93
2018-11-22T20:24:32.666Z,88.37
2018-11-22T20:27:06.982Z,87.33
2018-11-22T20:29:37.207Z,91.23
2018-11-22T20:32:07.469Z,86.35
2018-11-22T20:34:37.880Z,89.97
2018-11-22T20:39:44.643Z,87.77
2018-11-22T20:42:15.082Z,92.77
2018-11-22T20:44:45.628Z,85.83
2018-11-22T20:47:16.033Z,88.93
2018-11-22T20:49:46.569Z,93.73
2018-11-22T20:52:17.313Z,90.38
2018-11-22T20:54:47.659Z,91.13
2018-11-22T20:57:18.051Z,89.00
2018-11-22T20:59:48.498Z,96.80
2018-11-22T21:02:19.523Z,93.55
2018-11-22T21:04:50.078Z,87.30
2018-11-22T21:07:21.179Z,89.17
2018-11-22T21:09:51.653Z,95.33
2018-11-22T21:12:22.672Z,99.17
2018-11-22T21:14:52.986Z,96.03
2018-11-22T21:17:24.110Z,99.67
2018-11-22T21:19:54.492Z,97.60
2018-11-22T21:22:24.975Z,99.63
2018-11-22T21:24:55.707Z,97.73
2018-11-22T21:27:26.633Z,101.53
2018-11-22T21:29:57.021Z,104.70
2018-11-22T21:32:27.183Z,104.27
2018-11-22T21:34:57.377Z,106.17
2018-11-22T21:37:27.712Z,100.00
2018-11-22T21:39:57.985Z,110.72
2018-11-22T21:42:28.350Z,101.33
2018-11-22T21:44:58.595Z,102.30
2018-11-22T21:47:28.985Z,105.23
2018-11-22T21:49:59.980Z,101.72
2018-11-22T21:52:30.205Z,105.77
2018-11-22T21:55:00.505Z,107.07
2018-11-22T21:57:33.518Z,103.43
2018-11-22T22:00:03.795Z,104.90
2018-11-22T22:02:33.977Z,110.40
2018-11-22T22:05:07.985Z,107.27
2018-11-22T22:07:38.623Z,106.60
2018-11-22T22:10:08.857Z,106.77
2018-11-22T22:12:39.883Z,101.00
2018-11-22T22:15:12.888Z,107.57
2018-11-22T22:17:43.944Z,110.90
2018-11-22T22:20:17.143Z,104.32
2018-11-22T22:22:47.561Z,111.23
2018-11-22T22:25:19.253Z,105.05
2018-11-22T22:27:50.406Z,105.70
2018-11-22T22:30:26.214Z,109.87
2018-11-22T22:32:57.857Z,107.00
2018-11-22T22:35:28.110Z,114.55
2018-11-22T22:37:58.413Z,117.77
2018-11-22T22:40:29.548Z,107.77
2018-11-22T22:43:00.357Z,122.50
2018-11-22T22:45:31.586Z,127.93
2018-11-22T22:48:01.862Z,121.40
2018-11-22T22:50:33.074Z,126.97
2018-11-22T22:53:03.530Z,115.77
2018-11-22T22:55:34.808Z,121.15
2018-11-22T22:58:06.064Z,118.17
2018-11-22T23:00:42.443Z,127.50
2018-11-22T23:05:53.041Z,118.37
2018-11-22T23:08:23.600Z,113.30
2018-11-22T23:10:54.053Z,120.33
2018-11-22T23:13:27.103Z,116.40
2018-11-22T23:15:57.522Z,117.80
2018-11-22T23:18:28.038Z,112.50
2018-11-22T23:20:58.425Z,117.90
2018-11-22T23:23:29.331Z,109.33
2018-11-22T23:26:00.384Z,115.33
2018-11-22T23:28:31.403Z,115.70
2018-11-22T23:31:01.733Z,117.33
2018-11-22T23:33:31.973Z,121.47
2018-11-22T23:36:02.273Z,122.63
2018-11-22T23:38:33.026Z,121.57
2018-11-22T23:41:03.364Z,118.83
2018-11-22T23:43:34.430Z,118.40
2018-11-22T23:46:05.864Z,122.50
2018-11-22T23:48:36.095Z,122.70
2018-11-22T23:51:09.244Z,131.45
2018-11-22T23:53:39.450Z,120.30
2018-11-22T23:56:10.430Z,128.68
2018-11-22T23:58:40.656Z,126.63
